Aérodrome :
LOGIN :

S'inscrire | Disclaimer

   EN    FR    IT 

 










Légende :    VFR   VFR Marginal   IFR   IFR Intensif   IFR Très Intensif
Visi : 
Plafond : 
>= 8 km
>= 3000ft
5 à 8 km
1000 à 3000 ft
1500m à 5 km
500 à 1000 ft
800 à 1500m
200 à 500 ft
< 800m
< 200 ft
Symboles :   Orages  Brouillard  Fortes neiges  Fortes précipitations  Vent > 20 kt
SIGMETs :   Divers  Orages  Givrage  Turbulence  Onde Orograph.  Cendres Volcan.






- Altitude de l'aérodrome : 20 ft


EBFN - Koksijde

DERNIER METAR :
  • 150825Z AUTO 22010KT 9999 NCD 05/02 Q0998 BLU

METARs EXPIRÉS :
  • 150755Z AUTO 23010KT 9999 NCD 05/01 Q0997 BLU
  • 150725Z AUTO 25012KT 9999 NCD 06/01 Q0997 BLU
  • 150655Z AUTO 25016KT 9999 NCD 08/00 Q0996 BLU
  • 150625Z AUTO 25017KT 9999 NCD 08/00 Q0996 BLU
  • 150555Z AUTO 26021KT 9999 NCD 08/M00 Q0995 BLU
  • 150525Z AUTO 26021KT 9999 NCD 09/01 Q0994 BLU

TAF TAF EBFN
Valide du 15 à 07h jusqu'au 15 à 16h UTC


150541Z 1507/1516 26025G40KT 9999 FEW025
TEMPO 1507/1516 6000 -SHRA SCT018
PROB30
TEMPO 1507/1516 4000 SHRA BKN014TCU
BECMG 1509/1511 22022G32KT



MET'MAP, la Météo Aéronautique d'un coup d'oeil ! - Copyright ORBIFLY Décembre 2007 - Disclaimer

ORBIFLY MET'MAP TEAM :

Programmation & Développement : Alexandra Zaïnal
Sur une idée originale de : Baudouin d'Aumeries
Assistance à la programmation : Marc-Olivier Méhu
Soutien technique & logistique : Manuel Goepfert

Contact : metmap@orbifly.com




SOURCES & CREDITS :

   NOAA